Time;durP1;ratioP1;P1;durP2;ratioP2;P2;SDS_P1;SDS_P2;PMS_P1;PMS_P2;Temp;Humidity;BMP_temperature;BMP_pressure;BME280_temperature;BME280_humidity;BME280_pressure;Samples;Min_cycle;Max_cycle;Signal;HPM_P1;HPM_P2
2022/08/07 13:23:50;;;;;;;5.80;2.83;;;23.90;62.50;;;;;;5070285;28;20778;-54
2022/08/07 13:26:29;;;;;;;4.82;2.45;;;23.80;62.80;;;;;;5057619;28;20104;-53
2022/08/07 13:28:57;;;;;;;5.07;2.58;;;23.70;62.70;;;;;;5050151;28;20041;-52
2022/08/07 13:31:25;;;;;;;6.13;3.40;;;23.70;63.40;;;;;;5050207;28;20088;-51
2022/08/07 13:33:57;;;;;;;5.53;3.15;;;23.70;63.50;;;;;;5050990;28;20045;-52
2022/08/07 13:36:45;;;;;;;5.25;3.00;;;23.70;62.40;;;;;;5044469;28;20433;-54
2022/08/07 13:39:13;;;;;;;6.80;2.80;;;23.80;63.10;;;;;;5047887;28;20038;-56
2022/08/07 13:41:59;;;;;;;5.05;2.80;;;23.80;63.90;;;;;;5048520;28;20073;-51
2022/08/07 13:44:28;;;;;;;8.10;2.63;;;23.90;63.40;;;;;;5051551;28;20496;-52
2022/08/07 13:47:02;;;;;;;;;;;23.90;62.70;;;;;;5048709;28;20037;-53
2022/08/07 13:49:34;;;;;;;4.70;2.40;;;24.10;61.70;;;;;;5041760;28;19921;-55
2022/08/07 13:52:21;;;;;;;6.97;2.67;;;24.30;62.40;;;;;;5043094;28;20049;-56
2022/08/07 13:55:01;;;;;;;5.20;2.60;;;24.40;61.40;;;;;;5046562;28;20040;-56
2022/08/07 13:57:32;;;;;;;4.85;2.55;;;24.40;61.50;;;;;;5047127;28;20052;-56
2022/08/07 14:00:05;;;;;;;6.72;2.15;;;24.50;61.20;;;;;;5048856;28;20038;-47
2022/08/07 14:02:37;;;;;;;4.05;2.55;;;24.50;61.00;;;;;;5049382;28;20041;-58
2022/08/07 14:05:16;;;;;;;4.72;2.72;;;24.50;61.00;;;;;;5049828;28;20057;-48
2022/08/07 14:07:43;;;;;;;5.22;2.70;;;24.40;61.40;;;;;;5049347;28;20504;-56
2022/08/07 14:10:26;;;;;;;5.22;2.30;;;24.30;61.30;;;;;;5049361;28;20037;-53
2022/08/07 14:12:57;;;;;;;7.53;2.88;;;24.40;61.60;;;;;;5049690;28;20053;-55
2022/08/07 14:15:27;;;;;;;5.68;2.47;;;24.40;61.40;;;;;;5049503;28;20052;-51
2022/08/07 14:17:57;;;;;;;7.18;3.00;;;24.40;62.10;;;;;;5049201;28;20045;-55
2022/08/07 14:20:44;;;;;;;6.43;2.25;;;24.40;61.60;;;;;;5049611;28;20049;-55
2022/08/07 14:23:19;;;;;;;6.70;2.28;;;24.60;61.40;;;;;;5050203;28;20072;-57
2022/08/07 14:26:07;;;;;;;8.07;2.30;;;24.80;60.70;;;;;;5045616;28;20042;-50
2022/08/07 14:28:34;;;;;;;3.70;2.30;;;24.90;61.00;;;;;;5049295;28;20042;-55
2022/08/07 14:31:20;;;;;;;5.22;2.15;;;24.80;61.20;;;;;;5048893;28;20065;-49
2022/08/07 14:33:49;;;;;;;6.57;2.45;;;24.70;60.50;;;;;;5043783;28;20535;-53
2022/08/07 14:36:16;;;;;;;4.68;2.00;;;24.70;61.70;;;;;;5035856;28;20041;-54
2022/08/07 14:38:44;;;;;;;5.78;1.90;;;24.80;61.60;;;;;;5041122;28;20041;-54
2022/08/07 14:41:16;;;;;;;4.68;2.10;;;24.80;61.00;;;;;;5035911;28;20135;-52
2022/08/07 14:43:59;;;;;;;4.55;1.70;;;24.90;61.60;;;;;;5038359;28;20049;-52
2022/08/07 14:46:41;;;;;;;4.60;1.80;;;24.90;61.30;;;;;;5034318;28;20107;-56
2022/08/07 14:49:28;;;;;;;4.45;1.60;;;25.00;60.80;;;;;;5037461;28;20350;-55
2022/08/07 14:52:15;;;;;;;2.90;1.58;;;25.00;60.50;;;;;;5035733;28;20120;-53
2022/08/07 14:54:42;;;;;;;3.50;1.52;;;25.20;60.50;;;;;;5036390;28;20046;-56
2022/08/07 14:57:10;;;;;;;3.05;1.60;;;25.20;60.00;;;;;;5035431;28;20081;-56
2022/08/07 14:59:44;;;;;;;4.85;1.75;;;25.30;60.60;;;;;;5035139;28;20063;-56
2022/08/07 15:02:31;;;;;;;4.22;1.60;;;25.30;60.60;;;;;;5035561;28;20042;-59
2022/08/07 15:05:00;;;;;;;3.65;1.52;;;25.40;60.90;;;;;;5040395;28;20037;-52
2022/08/07 15:07:28;;;;;;;4.30;1.83;;;25.50;60.30;;;;;;5035360;28;20052;-58
2022/08/07 15:10:13;;;;;;;3.65;1.45;;;25.50;59.90;;;;;;5035332;28;20507;-57
2022/08/07 15:12:45;;;;;;;3.05;1.70;;;25.50;60.10;;;;;;5035149;28;20045;-54
2022/08/07 15:15:21;;;;;;;3.08;1.98;;;25.50;60.50;;;;;;5029382;28;20064;-54
2022/08/07 15:17:48;;;;;;;4.90;1.63;;;25.50;60.20;;;;;;5035354;28;20480;-56
2022/08/07 15:20:36;;;;;;;6.40;1.75;;;25.60;60.20;;;;;;5035138;28;20047;-53
2022/08/07 15:23:21;;;;;;;3.20;1.27;;;25.60;60.00;;;;;;5037255;28;20140;-54
2022/08/07 15:26:08;;;;;;;4.05;1.30;;;25.70;59.70;;;;;;5031271;28;20398;-48
2022/08/07 15:28:37;;;;;;;2.70;1.20;;;25.70;59.90;;;;;;5036440;28;20040;-54
2022/08/07 15:31:24;;;;;;;3.80;1.83;;;25.70;59.90;;;;;;5034922;28;20100;-53
2022/08/07 15:34:11;;;;;;;3.03;1.40;;;25.80;60.00;;;;;;5039727;28;20170;-55
2022/08/07 15:36:42;;;;;;;3.65;1.42;;;25.80;59.50;;;;;;5034808;28;20049;-55
2022/08/07 15:39:29;;;;;;;3.97;1.73;;;25.90;59.50;;;;;;5034841;28;20069;-53
2022/08/07 15:42:15;;;;;;;3.08;1.50;;;25.90;59.40;;;;;;5034574;28;20133;-55
2022/08/07 15:45:02;;;;;;;3.38;1.50;;;26.00;59.40;;;;;;5039478;28;20124;-51
2022/08/07 15:47:37;;;;;;;3.38;1.60;;;26.00;59.90;;;;;;5034402;28;20044;-56
2022/08/07 15:50:23;;;;;;;4.25;1.40;;;26.00;59.50;;;;;;5034484;28;20052;-53
2022/08/07 15:53:11;;;;;;;6.30;2.25;;;25.90;59.90;;;;;;5034677;28;20354;-51
2022/08/07 15:55:39;;;;;;;3.70;1.75;;;25.90;59.30;;;;;;5034109;28;20068;-49
2022/08/07 15:58:26;;;;;;;4.13;1.27;;;26.00;59.80;;;;;;5034397;28;20045;-52
2022/08/07 16:00:58;;;;;;;3.50;1.30;;;26.10;59.40;;;;;;5034293;28;20045;-52
2022/08/07 16:03:24;;;;;;;4.60;1.20;;;26.10;58.90;;;;;;5039566;28;20038;-52
2022/08/07 16:06:11;;;;;;;2.65;1.00;;;26.20;59.10;;;;;;5034158;28;20463;-55
2022/08/07 16:08:38;;;;;;;4.13;1.35;;;26.30;58.50;;;;;;5034108;28;20041;-56
2022/08/07 16:11:07;;;;;;;3.83;1.40;;;26.30;58.60;;;;;;5034176;28;20042;-53
2022/08/07 16:13:53;;;;;;;4.38;1.30;;;26.70;58.30;;;;;;5034073;28;20052;-55
2022/08/07 16:16:25;;;;;;;2.05;0.93;;;27.30;57.80;;;;;;5034038;28;20048;-57
2022/08/07 16:19:12;;;;;;;5.30;1.40;;;27.80;56.50;;;;;;5039734;28;20052;-56
2022/08/07 16:21:39;;;;;;;4.47;1.20;;;28.20;56.10;;;;;;5033720;28;20050;-56
2022/08/07 16:24:25;;;;;;;4.40;0.90;;;28.60;56.10;;;;;;5036703;28;20064;-51
2022/08/07 16:27:01;;;;;;;2.70;1.30;;;28.90;54.90;;;;;;5033781;28;20040;-57
2022/08/07 16:29:27;;;;;;;3.42;1.08;;;29.10;54.50;;;;;;5034247;28;20593;-55
2022/08/07 16:32:14;;;;;;;4.25;0.90;;;29.20;54.40;;;;;;5032627;28;20136;-56
2022/08/07 16:34:58;;;;;;;3.13;1.10;;;29.10;54.30;;;;;;5033740;28;20052;-53
2022/08/07 16:37:26;;;;;;;5.43;0.90;;;29.20;53.90;;;;;;5033379;28;20041;-53
2022/08/07 16:40:13;;;;;;;3.92;1.25;;;29.40;53.50;;;;;;5033826;28;20396;-53
2022/08/07 16:42:54;;;;;;;2.92;1.20;;;29.50;52.80;;;;;;5032589;28;20049;-56
2022/08/07 16:45:21;;;;;;;3.15;1.00;;;29.60;52.90;;;;;;5033354;28;20396;-55
2022/08/07 16:48:08;;;;;;;2.35;1.00;;;29.80;53.70;;;;;;5033722;28;20485;-54
2022/08/07 16:50:39;;;;;;;4.18;1.10;;;30.20;52.70;;;;;;5033415;28;20068;-54
2022/08/07 16:53:26;;;;;;;3.83;1.00;;;30.50;52.10;;;;;;5033288;28;20401;-54
2022/08/07 16:56:12;;;;;;;4.28;0.95;;;30.60;52.00;;;;;;5026784;28;20045;-57
2022/08/07 16:58:39;;;;;;;3.45;1.20;;;30.40;51.60;;;;;;5033319;28;20095;-51
2022/08/07 17:01:26;;;;;;;1.63;0.90;;;30.50;52.30;;;;;;5033299;28;20171;-58
2022/08/07 17:04:00;;;;;;;2.58;0.90;;;30.60;51.30;;;;;;5029937;28;20103;-56
2022/08/07 17:06:26;;;;;;;3.97;2.00;;;30.50;51.30;;;;;;5033283;28;20080;-52
2022/08/07 17:08:59;;;;;;;2.10;1.10;;;30.30;51.10;;;;;;5033175;28;20053;-57
2022/08/07 17:11:36;;;;;;;3.30;1.75;;;30.20;50.30;;;;;;5033238;28;20049;-58
2022/08/07 17:14:23;;;;;;;6.63;1.45;;;30.20;50.90;;;;;;5027261;28;20048;-56
2022/08/07 17:16:50;;;;;;;3.35;1.42;;;30.10;50.20;;;;;;5032974;28;20044;-53
2022/08/07 17:19:22;;;;;;;4.60;1.67;;;30.40;50.60;;;;;;5033143;28;20056;-57
2022/08/07 17:22:08;;;;;;;2.42;1.20;;;30.50;50.70;;;;;;5032731;28;20088;-51
2022/08/07 17:24:36;;;;;;;3.92;1.50;;;30.50;51.10;;;;;;5034736;28;20099;-53
2022/08/07 17:27:04;;;;;;;3.85;1.15;;;30.40;49.60;;;;;;5032943;28;20076;-52
2022/08/07 17:29:31;;;;;;;4.97;0.90;;;30.50;49.80;;;;;;5033457;28;20048;-53
2022/08/07 17:32:18;;;;;;;2.45;1.00;;;30.40;50.20;;;;;;5035397;28;20442;-50
2022/08/07 17:35:00;;;;;;;2.05;0.88;;;30.70;50.30;;;;;;5033091;28;20045;-55
2022/08/07 17:37:47;;;;;;;2.20;0.82;;;30.90;50.00;;;;;;5033029;28;20037;-54
2022/08/07 17:40:32;;;;;;;1.55;0.90;;;31.00;49.40;;;;;;5032964;28;20112;-55
2022/08/07 17:42:59;;;;;;;2.10;0.90;;;30.70;48.70;;;;;;5032791;28;20403;-54
2022/08/07 17:45:26;;;;;;;2.75;1.00;;;30.30;48.60;;;;;;5032771;28;20469;-53
2022/08/07 17:47:53;;;;;;;3.88;0.80;;;30.20;48.80;;;;;;5033313;28;20041;-54
2022/08/07 17:50:20;;;;;;;2.17;0.80;;;30.30;48.50;;;;;;5033485;28;20116;-51
2022/08/07 17:52:47;;;;;;;2.58;1.10;;;30.40;48.90;;;;;;5032495;28;20399;-54
2022/08/07 17:55:15;;;;;;;2.35;0.82;;;30.50;48.70;;;;;;5032025;28;20065;-52
2022/08/07 17:58:02;;;;;;;2.28;0.80;;;30.40;48.90;;;;;;5033439;28;20065;-52
2022/08/07 18:00:30;;;;;;;3.38;1.00;;;30.40;48.50;;;;;;5031439;28;20507;-58
2022/08/07 18:03:14;;;;;;;3.72;1.00;;;30.50;48.30;;;;;;5034750;28;20045;-55
2022/08/07 18:05:47;;;;;;;2.75;0.90;;;30.60;48.10;;;;;;5032603;28;20511;-52
2022/08/07 18:08:31;;;;;;;3.53;0.90;;;30.70;48.10;;;;;;5033189;28;20132;-54
2022/08/07 18:10:58;;;;;;;1.92;0.90;;;30.80;47.80;;;;;;5036350;28;20488;-51
2022/08/07 18:13:47;;;;;;;2.05;0.98;;;30.80;47.60;;;;;;5036401;28;20076;-54
2022/08/07 18:16:14;;;;;;;3.67;0.80;;;30.50;47.80;;;;;;5036113;28;20147;-54
2022/08/07 18:18:58;;;;;;;2.80;1.00;;;30.50;47.40;;;;;;5036253;28;20034;-56
2022/08/07 18:21:45;;;;;;;2.50;0.90;;;30.40;47.90;;;;;;5036191;28;20072;-57
2022/08/07 18:24:29;;;;;;;2.42;1.00;;;30.60;47.80;;;;;;5037032;28;20098;-55
2022/08/07 18:27:00;;;;;;;2.78;1.00;;;30.60;48.00;;;;;;5035867;28;20076;-50
2022/08/07 18:29:31;;;;;;;3.17;0.90;;;30.40;47.50;;;;;;5036107;28;20073;-56
2022/08/07 18:32:18;;;;;;;2.00;1.00;;;30.10;47.60;;;;;;5035822;28;20117;-58
2022/08/07 18:34:46;;;;;;;3.58;1.00;;;29.50;47.90;;;;;;5035827;28;20443;-53
2022/08/07 18:37:30;;;;;;;1.42;0.88;;;29.00;48.40;;;;;;5030628;28;20045;-57
2022/08/07 18:40:17;;;;;;;2.17;1.00;;;28.50;49.00;;;;;;5035700;28;20069;-51
2022/08/07 18:43:05;;;;;;;2.80;1.20;;;28.20;49.50;;;;;;5035863;28;20064;-53
2022/08/07 18:45:33;;;;;;;2.58;1.10;;;27.80;50.60;;;;;;5035645;28;20060;-52
2022/08/07 18:48:20;;;;;;;2.30;1.00;;;27.50;50.20;;;;;;5032031;28;20128;-54
2022/08/07 18:51:07;;;;;;;3.63;1.05;;;27.30;50.50;;;;;;5035481;28;20041;-53
2022/08/07 18:53:33;;;;;;;2.65;1.15;;;27.00;50.30;;;;;;5035493;28;20061;-50
2022/08/07 18:56:05;;;;;;;2.72;1.10;;;26.70;50.80;;;;;;5040731;28;20500;-52
2022/08/07 18:58:32;;;;;;;3.75;1.20;;;26.50;50.80;;;;;;5035380;28;20095;-55
2022/08/07 19:01:00;;;;;;;2.53;1.20;;;26.40;51.70;;;;;;5035346;28;20104;-56
2022/08/07 19:03:29;;;;;;;3.70;1.20;;;26.30;51.10;;;;;;5034978;28;20120;-53
2022/08/07 19:06:03;;;;;;;3.55;1.00;;;26.20;51.30;;;;;;5035127;28;20108;-56
2022/08/07 19:08:30;;;;;;;2.63;1.10;;;26.00;51.70;;;;;;5035163;28;20049;-53
2022/08/07 19:10:59;;;;;;;5.03;1.10;;;25.90;51.60;;;;;;5035375;28;20042;-54
2022/08/07 19:13:26;;;;;;;2.22;1.10;;;25.90;51.60;;;;;;5035038;28;20480;-50
2022/08/07 19:15:53;;;;;;;5.95;1.00;;;25.80;51.80;;;;;;5035232;28;20128;-50
2022/08/07 19:18:40;;;;;;;3.28;1.08;;;25.60;51.90;;;;;;5035097;28;20092;-50
2022/08/07 19:21:12;;;;;;;3.25;1.20;;;25.50;52.10;;;;;;5036257;28;20178;-53
2022/08/07 19:24:00;;;;;;;4.38;1.00;;;25.40;52.90;;;;;;5034661;28;20061;-52
2022/08/07 19:26:26;;;;;;;4.68;1.23;;;25.30;52.50;;;;;;5034864;28;20485;-60
2022/08/07 19:28:55;;;;;;;3.90;1.30;;;25.20;52.70;;;;;;5034929;28;20112;-55
2022/08/07 19:31:42;;;;;;;3.35;1.45;;;25.20;53.00;;;;;;5036336;28;20045;-54
2022/08/07 19:34:30;;;;;;;3.92;1.20;;;25.10;53.20;;;;;;5033865;28;20048;-51
2022/08/07 19:37:02;;;;;;;3.28;1.13;;;25.00;53.30;;;;;;5034733;28;20048;-61
2022/08/07 19:39:43;;;;;;;2.75;1.20;;;24.90;53.50;;;;;;5034564;28;20048;-57
2022/08/07 19:42:27;;;;;;;2.22;1.30;;;24.70;53.60;;;;;;5035081;28;20045;-56
2022/08/07 19:44:56;;;;;;;2.85;1.20;;;24.60;53.70;;;;;;5034029;28;20423;-54
2022/08/07 19:47:26;;;;;;;2.95;1.17;;;24.60;53.90;;;;;;5034197;28;20037;-52
2022/08/07 19:49:54;;;;;;;2.05;1.08;;;24.50;54.10;;;;;;5034643;28;20098;-51
2022/08/07 19:52:28;;;;;;;6.25;1.50;;;24.40;54.10;;;;;;5034431;28;20900;-51
2022/08/07 19:54:57;;;;;;;5.80;1.30;;;24.40;54.30;;;;;;5034393;28;20046;-57
2022/08/07 19:57:25;;;;;;;2.78;1.00;;;24.30;54.60;;;;;;5035288;28;20049;-55
2022/08/07 20:00:12;;;;;;;2.60;1.27;;;24.20;54.80;;;;;;5034868;28;20048;-50
2022/08/07 20:02:54;;;;;;;3.63;1.10;;;24.10;54.80;;;;;;5037993;28;20045;-54
2022/08/07 20:05:24;;;;;;;3.85;1.35;;;24.10;55.00;;;;;;5034237;28;20064;-55
2022/08/07 20:07:53;;;;;;;3.70;1.33;;;24.00;55.30;;;;;;5034185;28;20219;-56
2022/08/07 20:10:23;;;;;;;3.53;1.20;;;23.90;55.30;;;;;;5034298;28;20476;-51
2022/08/07 20:13:10;;;;;;;2.53;1.35;;;23.80;55.40;;;;;;5034009;28;20125;-56
2022/08/07 20:15:49;;;;;;;3.00;1.50;;;23.80;55.80;;;;;;5033915;28;20065;-52
2022/08/07 20:18:16;;;;;;;3.63;1.50;;;23.70;56.00;;;;;;5033792;28;20052;-53
2022/08/07 20:20:45;;;;;;;4.68;1.60;;;23.60;56.30;;;;;;5033833;28;20090;-57
2022/08/07 20:23:13;;;;;;;5.07;1.65;;;23.50;56.40;;;;;;5034801;28;20137;-57
2022/08/07 20:26:00;;;;;;;3.28;1.35;;;23.50;56.60;;;;;;5033728;28;20065;-54
2022/08/07 20:28:29;;;;;;;5.57;1.45;;;23.40;56.70;;;;;;5032470;28;20099;-52
2022/08/07 20:30:56;;;;;;;5.43;1.48;;;23.40;57.00;;;;;;5033614;28;20072;-56
2022/08/07 20:33:23;;;;;;;2.83;1.63;;;23.40;57.50;;;;;;5034403;28;20111;-46
2022/08/07 20:36:04;;;;;;;4.90;1.70;;;23.30;57.50;;;;;;5033551;28;20481;-53
2022/08/07 20:38:31;;;;;;;4.93;1.50;;;23.20;57.50;;;;;;5033618;28;20038;-53
2022/08/07 20:41:01;;;;;;;3.58;1.80;;;23.20;57.90;;;;;;5033614;28;20046;-52
2022/08/07 20:43:31;;;;;;;3.85;1.70;;;23.10;58.40;;;;;;5033379;28;20041;-57
2022/08/07 20:45:58;;;;;;;4.10;1.77;;;23.10;59.40;;;;;;5032335;28;20147;-55
2022/08/07 20:48:44;;;;;;;7.38;2.03;;;22.90;59.30;;;;;;5033762;28;20493;-54
2022/08/07 20:51:31;;;;;;;3.05;1.60;;;22.90;60.10;;;;;;5033362;28;20048;-52
2022/08/07 20:54:08;;;;;;;;;;;22.80;60.70;;;;;;5033686;28;20467;-53
2022/08/07 20:56:41;;;;;;;4.22;2.10;;;22.70;61.90;;;;;;5033450;28;19924;-55
2022/08/07 20:59:16;;;;;;;4.30;1.90;;;22.60;61.30;;;;;;5033374;28;20038;-51
2022/08/07 21:02:03;;;;;;;4.55;1.63;;;22.50;61.60;;;;;;5033362;28;20041;-55
2022/08/07 21:04:40;;;;;;;4.75;1.77;;;22.50;62.10;;;;;;5037320;28;20128;-54
2022/08/07 21:07:08;;;;;;;4.40;1.92;;;22.40;62.40;;;;;;5032756;28;20092;-53
2022/08/07 21:09:45;;;;;;;5.10;1.85;;;22.40;62.90;;;;;;5033236;28;20489;-55
2022/08/07 21:12:24;;;;;;;5.00;1.90;;;22.40;63.10;;;;;;5033082;28;20044;-54
2022/08/07 21:14:56;;;;;;;7.68;2.22;;;22.30;63.50;;;;;;5032885;28;20496;-54
2022/08/07 21:17:23;;;;;;;3.35;1.80;;;22.20;63.60;;;;;;5032899;28;20100;-54
2022/08/07 21:20:10;;;;;;;6.80;2.58;;;22.10;64.20;;;;;;5032983;28;20147;-54
2022/08/07 21:22:52;;;;;;;5.93;2.80;;;22.10;63.90;;;;;;5032284;28;20492;-48
2022/08/07 21:25:20;;;;;;;6.07;2.97;;;22.00;64.30;;;;;;5031654;28;20053;-57
2022/08/07 21:27:47;;;;;;;7.38;2.45;;;21.90;64.90;;;;;;5032983;28;20592;-56
2022/08/07 21:30:20;;;;;;;6.28;2.78;;;21.90;65.10;;;;;;5038757;28;20049;-57
2022/08/07 21:32:49;;;;;;;6.88;2.70;;;21.80;65.50;;;;;;5032811;28;20046;-56
2022/08/07 21:35:17;;;;;;;4.68;2.50;;;21.70;66.00;;;;;;5034244;28;20128;-52
2022/08/07 21:38:04;;;;;;;4.70;2.05;;;21.60;66.30;;;;;;5032392;28;20041;-55
2022/08/07 21:40:32;;;;;;;4.90;2.80;;;21.50;67.00;;;;;;5030630;28;20053;-57
2022/08/07 21:43:04;;;;;;;3.85;2.80;;;21.50;67.20;;;;;;5028252;28;20037;-60
2022/08/07 21:45:31;;;;;;;5.88;2.40;;;21.40;67.70;;;;;;5033092;28;20085;-55
2022/08/07 21:48:18;;;;;;;4.25;2.35;;;21.30;67.70;;;;;;5037492;28;20045;-51
2022/08/07 21:50:57;;;;;;;5.53;2.50;;;21.30;68.30;;;;;;5036305;28;20049;-56
2022/08/07 21:53:24;;;;;;;9.90;2.97;;;21.20;69.20;;;;;;5035661;28;20046;-58
2022/08/07 21:55:51;;;;;;;5.53;2.63;;;21.10;69.00;;;;;;5035885;28;20042;-54
2022/08/07 21:58:18;;;;;;;6.15;2.70;;;21.10;69.10;;;;;;5036308;28;20048;-51
2022/08/07 22:00:58;;;;;;;8.38;2.90;;;21.10;69.30;;;;;;5036151;28;20072;-52
2022/08/07 22:03:25;;;;;;;10.02;2.75;;;20.90;69.80;;;;;;5033503;28;20037;-55
2022/08/07 22:05:57;;;;;;;4.78;2.50;;;20.90;70.30;;;;;;5034304;28;20053;-57
2022/08/07 22:08:24;;;;;;;7.55;2.67;;;20.90;69.90;;;;;;5034300;28;20045;-52
2022/08/07 22:10:50;;;;;;;7.55;3.78;;;20.80;70.40;;;;;;5035761;28;20432;-56
2022/08/07 22:13:18;;;;;;;6.05;2.65;;;20.70;70.70;;;;;;5034490;28;20111;-62
2022/08/07 22:16:04;;;;;;;5.93;2.90;;;20.70;70.90;;;;;;5030681;28;20037;-58
2022/08/07 22:18:51;;;;;;;6.00;2.92;;;20.60;71.40;;;;;;5031550;28;20056;-55
2022/08/07 22:21:18;;;;;;;6.80;2.75;;;20.60;71.30;;;;;;5033921;28;20045;-56
